• Join FlightAware (Why Join?)
  • Login
  • US Flag 
11:21PM EDT


 

Airport Tracker/Info


-or-


 

Live Flight TrackerFlight Track Log ✈ N357FE ✈ 14-Apr-2013 ✈ KIAD - KMEM

Flight Track Log - Related Links

Times and Time Zones

All times are in EDT time to prevent confusion due to time zone crossing. See the N357FE flight status page for this flight to view local times or setup timezone preferences in your user account.

Time Position Orientation Groundspeed Altitude Reporting Facility
EDT Latitude Longitude Course Direction KTS MPH feet Rate Location/Type
07:31AM 38.9430 -77.5090 246° West 182 209 1,500  Level FlightAware
07:31AM 38.9370 -77.5250 244° Southwest 203 234 1,900 1,500 Climbing FlightAware
07:31AM 38.9260 -77.5550 245° Southwest 238 274 2,500 2,220 Climbing FlightAware
07:32AM 38.9180 -77.5820 249° West 238 274 3,600 3,720 Climbing FlightAware
07:32AM 38.9120 -77.6010 248° West 231 266 4,700 3,720 Climbing FlightAware
07:32AM 38.9020 -77.6350 249° West 238 274 6,100 2,280 Climbing FlightAware
07:33AM 38.8870 -77.6740 244° Southwest 238 274 6,800 840 Climbing FlightAware
07:33AM 38.8740 -77.7050 242° Southwest 236 272 6,900 60 Climbing FlightAware
07:34AM 38.8570 -77.7410 239° Southwest 240 276 6,900 420 Level FlightAware
07:34AM 38.8430 -77.7710 239° Southwest 241 277 7,300 1,320 Climbing FlightAware
07:34AM 38.8370 -77.7920 250° West 234 269 7,800 2,160 Climbing FlightAware
07:35AM 38.8370 -77.8120 270° West 227 261 8,400 2,580 Climbing FlightAware
07:35AM 38.8380 -77.8310 274° West 229 264 9,100 2,280 Climbing FlightAware
07:36AM 38.8400 -77.8880 273° West 261 300 10,500 1,320 Climbing FlightAware
07:36AM 38.8440 -77.9660 274° West 320 368 11,000 1,380 Climbing FlightAware
07:37AM 38.8480 -78.0470 274° West 336 387 12,500 2,280 Climbing FlightAware
07:38AM 38.8510 -78.1280 273° West 348 400 14,100 2,400 Climbing FlightAware
07:38AM 38.8520 -78.2220 271° West 358 412 15,900 2,160 Climbing FlightAware
07:39AM 38.8420 -78.3070 261° West 367 422 17,200 1,980 Climbing FlightAware
07:40AM 38.8310 -78.3940 261° West 372 428 18,600 2,160 Climbing FlightAware
07:40AM 38.8180 -78.4920 260° West 370 426 20,300 1,980 Climbing FlightAware
07:41AM 38.8090 -78.5650 261° West 374 430 21,300 1,680 Climbing FlightAware
07:42AM 38.7960 -78.6670 261° West 381 438 22,600 1,620 Climbing FlightAware
07:42AM 38.7840 -78.7550 260° West 388 447 23,600 1,320 Climbing FlightAware
07:43AM 38.7710 -78.8580 261° West 397 457 24,500 1,080 Climbing FlightAware
07:44AM 38.7580 -78.9550 260° West 408 470 25,200 1,080 Climbing FlightAware
07:44AM 38.7490 -79.0240 261° West 412 474 25,800 1,200 Climbing FlightAware
07:45AM 38.7360 -79.1210 260° West 418 481 26,600 1,200 Climbing FlightAware
07:46AM 38.7210 -79.2320 260° West 425 489 27,500 1,260 Climbing FlightAware
07:46AM 38.7070 -79.3340 260° West 426 490 28,400 1,920 Climbing FlightAware
07:47AM 38.6950 -79.4260 261° West 405 466 30,100 2,700 Climbing FlightAware
07:48AM 38.6850 -79.4980 260° West 390 449 31,600 1,620 Climbing FlightAware
07:48AM 38.6730 -79.5830 260° West 379 436 32,000 240 Climbing FlightAware
07:49AM 38.6590 -79.6890 260° West 382 440 32,000  Level FlightAware
07:50AM 38.6490 -79.7560 259° West 383 441 32,000  Level FlightAware
07:50AM 38.6350 -79.8540 260° West 382 440 32,000  Level FlightAware
07:51AM 38.6250 -79.9290 260° West 380 437 32,000  Level FlightAware
07:51AM 38.6140 -79.9990 259° West 380 437 32,000  Level FlightAware
07:52AM 38.6030 -80.0740 259° West 380 437 32,000  Level FlightAware
07:53AM 38.5910 -80.1490 258° West 380 437 32,000  Level FlightAware
07:53AM 38.5800 -80.2240 259° West 380 437 32,000  Level FlightAware
07:54AM 38.5650 -80.3180 258° West 380 437 32,000  Level FlightAware
07:55AM 38.5460 -80.4800 262° West 377 434 32,000  Level FlightAware
07:56AM 38.5310 -80.5810 259° West 379 436 32,000  Level FlightAware
07:56AM 38.5250 -80.6160 258° West 379 436 32,000  Level FlightAware
07:57AM 38.5080 -80.7350 260° West 380 437 32,000  Level FlightAware
07:58AM 38.4930 -80.8370 259° West 382 440 32,000  Level FlightAware
07:59AM 38.4920 -80.9550 269° West 380 437 32,000  Level FlightAware
07:59AM 38.5050 -81.0590 279° West 381 438 32,000  Level FlightAware
08:00AM 38.5150 -81.1350 280° West 383 441 32,000 60 Level FlightAware
08:00AM 38.5230 -81.1990 279° West 383 441 32,100 60 Climbing FlightAware
08:01AM 38.5320 -81.2690 279° West 384 442 32,100  Level FlightAware
08:02AM 38.5440 -81.3580 280° West 383 441 32,100 -120 Level FlightAware
08:02AM 38.5530 -81.4250 280° West 382 440 32,000 -120 Descending FlightAware
08:03AM 38.5520 -81.5370 269° West 387 445 32,000  Level FlightAware
08:04AM 38.5200 -81.6450 249° West 390 449 32,000  Level FlightAware
08:05AM 38.4910 -81.7440 250° West 390 449 32,000  Level FlightAware
08:05AM 38.4640 -81.8300 248° West 391 450 32,000  Level FlightAware
08:06AM 38.4390 -81.9120 249° West 391 450 32,000  Level FlightAware
08:07AM 38.4090 -82.0100 249° West 392 451 32,000  Level FlightAware
08:07AM 38.3820 -82.0970 248° West 395 455 32,000  Level FlightAware
08:08AM 38.3510 -82.1970 248° West 396 456 32,000  Level FlightAware
08:09AM 38.3240 -82.2840 248° West 397 457 32,000  Level FlightAware
08:09AM 38.2940 -82.3790 248° West 400 460 32,000  Level FlightAware
08:10AM 38.2670 -82.4650 248° West 401 461 32,000  Level FlightAware
08:11AM 38.2349 -82.5681 248° West 403 464 32,000  Level FlightAware ADS-B
08:11AM 38.2140 -82.6320 247° West 400 460 32,000  Level FlightAware
08:12AM 38.1870 -82.7210 249° West 399 459 32,000  Level FlightAware
08:13AM 38.1660 -82.7860 248° West 397 457 32,000  Level FlightAware
08:13AM 38.1380 -82.8730 248° West 398 458 32,000  Level FlightAware
08:14AM 38.1110 -82.9600 248° West 401 461 32,000  Level FlightAware
08:15AM 38.0840 -83.0450 248° West 400 460 32,000  Level FlightAware
08:15AM 38.0550 -83.1300 247° West 400 460 32,000  Level FlightAware
08:16AM 38.0411 -83.1753 249° West 399 459 32,000  Level FlightAware ADS-B
08:16AM 38.0199 -83.2422 248° West 397 457 32,000  Level FlightAware ADS-B
08:17AM 37.9951 -83.3195 248° West 395 455 32,000  Level FlightAware ADS-B
08:17AM 37.9736 -83.3859 248° West 394 453 32,000  Level FlightAware ADS-B
08:18AM 37.9480 -83.4647 248° West 393 452 32,000  Level FlightAware ADS-B
08:20AM 37.8600 -83.7320 247° West 391 450 32,000  Level FlightAware
08:20AM 37.8390 -83.7970 248° West 391 450 32,000  Level FlightAware
08:21AM 37.8050 -83.9000 247° West 389 448 32,000  Level FlightAware
08:22AM 37.7670 -84.0140 247° West 390 449 32,000  Level FlightAware
08:23AM 37.7350 -84.1100 247° West 390 449 32,000  Level FlightAware
08:23AM 37.7170 -84.1630 247° West 390 449 32,000  Level FlightAware
08:24AM 37.6800 -84.2780 248° West 383 441 32,000  Level FlightAware
08:25AM 37.6440 -84.3870 247° West 386 444 32,000  Level FlightAware
08:26AM 37.6180 -84.4610 246° West 383 441 32,000  Level FlightAware
08:26AM 37.5890 -84.5470 247° West 381 438 32,000  Level FlightAware
08:27AM 37.5650 -84.6140 246° West 381 438 32,000 1,440 Level FlightAware
08:28AM 37.5360 -84.7060 248° West 367 422 33,800 1,560 Climbing FlightAware
08:28AM 37.5130 -84.7730 247° West 362 417 34,000 120 Climbing FlightAware
08:29AM 37.4870 -84.8490 247° West 363 418 34,000  Level FlightAware
08:30AM 37.4453 -84.9720 247° West 368 423 34,000  Level FlightAware ADS-B
08:31AM 37.4215 -85.0405 246° West 366 421 34,000  Level FlightAware ADS-B
08:31AM 37.4010 -85.0991 246° West 367 422 34,000  Level FlightAware ADS-B
08:32AM 37.3806 -85.1599 247° West 369 425 34,000  Level FlightAware ADS-B
08:32AM 37.3598 -85.2188 246° West 368 423 34,000  Level FlightAware ADS-B
08:33AM 37.3395 -85.2773 246° West 366 421 34,000  Level FlightAware ADS-B
08:33AM 37.3181 -85.3400 247° West 368 423 34,000  Level FlightAware ADS-B
08:34AM 37.2918 -85.4164 247° West 368 423 34,000  Level FlightAware ADS-B
08:34AM 37.2680 -85.4850 246° West 368 423 34,000  Level FlightAware
08:35AM 37.2570 -85.5163 246° West 368 423 34,000 60 Level FlightAware ADS-B
08:35AM 37.2255 -85.6058 246° West 365 420 34,100  Climbing FlightAware ADS-B
08:36AM 37.2033 -85.6694 246° West 362 417 34,000 -120 Descending FlightAware ADS-B
08:36AM 37.1820 -85.7310 247° West 362 417 34,000  Level FlightAware
08:37AM 37.1537 -85.8116 246° West 361 415 34,000  Level FlightAware ADS-B
08:38AM 37.1327 -85.8709 246° West 361 415 34,000  Level FlightAware ADS-B
08:38AM 37.1119 -85.9302 246° West 362 417 34,000  Level FlightAware ADS-B
08:39AM 37.0910 -85.9877 246° West 363 418 34,000  Level FlightAware ADS-B
08:39AM 37.0696 -86.0493 246° West 364 419 34,000  Level FlightAware ADS-B
08:40AM 37.0483 -86.1090 246° West 365 420 34,000  Level FlightAware ADS-B
08:40AM 37.0262 -86.1708 246° West 366 421 34,000  Level FlightAware ADS-B
08:41AM 37.0051 -86.2291 246° West 368 423 34,000  Level FlightAware ADS-B
08:41AM 36.9840 -86.2891 246° West 368 423 34,000 60 Level FlightAware ADS-B
08:42AM 36.9627 -86.3476 246° West 368 423 34,100 60 Climbing FlightAware ADS-B
08:42AM 36.9417 -86.4076 246° West 368 423 34,100  Level FlightAware ADS-B
08:43AM 36.9190 -86.4670 244° Southwest 365 420 34,100 -120 Level FlightAware
08:43AM 36.8989 -86.5110 240° Southwest 365 420 34,000 -240 Descending FlightAware ADS-B
08:44AM 36.8631 -86.5926 241° Southwest 366 421 33,900 -660 Descending FlightAware ADS-B
08:45AM 36.8330 -86.6600 241° Southwest 362 417 33,100 -1,560 Descending FlightAware
08:45AM 36.8000 -86.7350 241° Southwest 376 433 31,800 -2,220 Descending FlightAware
08:46AM 36.7670 -86.8100 241° Southwest 391 450 30,200 -1,440 Descending FlightAware
08:47AM 36.7350 -86.8820 241° Southwest 406 467 30,000 -180 Descending FlightAware
08:47AM 36.6990 -86.9620 241° Southwest 406 467 30,000  Level FlightAware
08:48AM 36.6640 -87.0410 241° Southwest 409 471 30,000  Level FlightAware
08:48AM 36.6280 -87.1210 241° Southwest 406 467 30,000  Level FlightAware
08:49AM 36.5960 -87.1940 241° Southwest 405 466 30,000  Level FlightAware
08:50AM 36.5640 -87.2660 241° Southwest 408 470 30,000  Level FlightAware
08:50AM 36.5180 -87.3660 240° Southwest 406 467 30,000  Level FlightAware
08:51AM 36.4750 -87.4620 241° Southwest 411 473 30,000  Level FlightAware
08:52AM 36.4440 -87.5300 240° Southwest 408 470 30,000 -840 Level FlightAware
08:53AM 36.4010 -87.6240 240° Southwest 405 466 28,900 -2,220 Descending FlightAware
08:53AM 36.3690 -87.6940 240° Southwest 410 472 27,100 -2,220 Descending FlightAware
08:54AM 36.3250 -87.7940 241° Southwest 438 504 26,000 -780 Descending FlightAware
08:55AM 36.2810 -87.8880 240° Southwest 440 506 26,000  Level FlightAware
08:56AM 36.2180 -88.0250 240° Southwest 438 504 26,000  Level FlightAware
08:57AM 36.1550 -88.1610 240° Southwest 437 503 26,000  Level FlightAware
08:57AM 36.1290 -88.2170 240° Southwest 437 503 26,000  Level FlightAware
08:58AM 36.0860 -88.3090 240° Southwest 437 503 26,000  Level FlightAware
08:59AM 36.0600 -88.3640 240° Southwest 437 503 26,000  Level FlightAware
08:59AM 36.0350 -88.4190 241° Southwest 437 503 26,000  Level FlightAware
09:00AM 36.0090 -88.4740 240° Southwest 437 503 26,000  Level FlightAware
09:00AM 35.9481 -88.6083 240° Southwest 413 475 26,000 -840 Level Memphis Center
09:01AM 35.8933 -88.7222 239° Southwest 408 470 24,500 -1,920 Descending Memphis Center
09:02AM 35.8303 -88.8542 240° Southwest 408 470 22,200 -2,520 Descending Memphis Center
09:03AM 35.7733 -88.9728 239° Southwest 408 470 19,500 -2,700 Descending Memphis Center
09:04AM 35.7161 -89.0864 238° Southwest 408 470 16,800 -2,760 Descending Memphis Center
09:05AM 35.6525 -89.1717 227° Southwest 390 449 14,000 -2,700 Descending Memphis Center
09:06AM 35.5783 -89.2697 227° Southwest 390 449 11,400 -1,860 Descending Memphis Center
09:07AM 35.5144 -89.3572 228° Southwest 372 428 10,300 -840 Descending Memphis Center
09:08AM 35.4714 -89.4572 242° Southwest 342 394 9,800 -180 Descending Memphis Center
09:09AM 35.4364 -89.5467 244° Southwest 300 345 10,000 -600 Climbing Memphis Center
09:10AM 35.4036 -89.6311 245° Southwest 285 328 8,700 -1,440 Descending Memphis Center
09:11AM 35.3708 -89.7153 244° Southwest 275 316 7,200 -1,440 Descending Memphis Center
09:12AM 35.3294 -89.7919 237° Southwest 280 322 5,900 -1,200 Descending Memphis Center
09:13AM 35.2775 -89.8408 218° Southwest 251 289 4,800 -1,200 Descending Memphis Center
09:14AM 35.2317 -89.8919 222° Southwest 236 272 3,600 -1,140 Descending Memphis Center
09:15AM 35.2167 -89.9000 204° Southwest 215 247 3,400 -720 Descending KMEM
09:16AM 35.1833 -89.9500 231° Southwest 196 226 2,700 -600 Descending KMEM
09:17AM 35.1500 -89.9667 202° Southwest 108 124 2,200 -540 Descending KMEM
09:18AM 35.1167 -89.9667 180° South 110 127 1,700 -600 Descending KMEM
09:19AM 35.0833 -89.9667 180° South 116 133 1,100 2,880 Descending KMEM
09:20AM 35.0214 -89.9767 188° South 120 138 10,000 5,100 Climbing Memphis Center
09:22AM 35.0333 -89.9667 345° North  Level FlightAware Approximate
09:29AM 35.0424 -89.9767 345° North  Level Estimated
09:30AM 35.0424 -89.9767 345° North  Level Estimated
09:31AM 35.0424 -89.9767 345° North  Level Estimated
09:32AM 35.0424 -89.9767 345° North  Level Estimated
09:33AM 35.0424 -89.9767 345° North  Level Estimated
09:34AM 35.0424 -89.9767 345° North  Level Estimated
09:35AM 35.0424 -89.9767 345° North  Level Estimated
09:36AM 35.0424 -89.9767 345° North  Level Estimated
09:37AM 35.0424 -89.9767 345° North  Level Estimated
09:38AM 35.0424 -89.9767 345° North  Level Estimated
09:39AM 35.0424 -89.9767 345° North  Level Estimated
09:40AM 35.0424 -89.9767 345° North  Level Estimated